createdAt,value
2022-09-07T00:00:09.814Z,99791.00
2022-09-07T00:00:21.585Z,99788.00
2022-09-07T00:00:33.957Z,99793.00
2022-09-07T00:00:47.440Z,99792.00
2022-09-07T00:00:58.261Z,99792.00
2022-09-07T00:01:09.051Z,99792.00
2022-09-07T00:01:21.580Z,99793.00
2022-09-07T00:01:32.352Z,99792.00
2022-09-07T00:01:43.085Z,99789.00
2022-09-07T00:01:53.813Z,99793.00
2022-09-07T00:02:04.590Z,99788.00
2022-09-07T00:02:15.381Z,99792.00
2022-09-07T00:02:26.140Z,99790.00
2022-09-07T00:02:36.889Z,99788.00
2022-09-07T00:02:47.662Z,99788.00
2022-09-07T00:03:00.224Z,99795.00
2022-09-07T00:03:11.173Z,99789.00
2022-09-07T00:03:23.812Z,99792.00
2022-09-07T00:03:34.731Z,99788.00
2022-09-07T00:03:45.502Z,99788.00
2022-09-07T00:03:56.306Z,99792.00
2022-09-07T00:04:07.095Z,99789.00
2022-09-07T00:04:18.836Z,99789.00
2022-09-07T00:04:29.632Z,99786.00
2022-09-07T00:04:42.259Z,99788.00
2022-09-07T00:04:53.993Z,99787.00
2022-09-07T00:05:05.727Z,99785.00
2022-09-07T00:05:18.226Z,99788.00
2022-09-07T00:05:29.002Z,99785.00
2022-09-07T00:05:39.744Z,99786.00
2022-09-07T00:05:52.472Z,99789.00
2022-09-07T00:06:03.248Z,99786.00
2022-09-07T00:06:14.063Z,99791.00
2022-09-07T00:06:24.853Z,99786.00
2022-09-07T00:06:35.614Z,99789.00
2022-09-07T00:06:46.371Z,99787.00
2022-09-07T00:06:57.150Z,99787.00
2022-09-07T00:07:07.913Z,99788.00
2022-09-07T00:07:19.775Z,99788.00
2022-09-07T00:07:30.576Z,99787.00
2022-09-07T00:07:41.345Z,99789.00
2022-09-07T00:07:52.123Z,99790.00
2022-09-07T00:08:03.876Z,99789.00
2022-09-07T00:08:14.621Z,99791.00
2022-09-07T00:08:25.398Z,99793.00
2022-09-07T00:08:36.136Z,99793.00
2022-09-07T00:08:48.374Z,99793.00
2022-09-07T00:08:59.162Z,99791.00
2022-09-07T00:09:11.662Z,99795.00
2022-09-07T00:09:23.453Z,99792.00
2022-09-07T00:09:35.904Z,99793.00
2022-09-07T00:09:46.657Z,99791.00
2022-09-07T00:09:57.435Z,99791.00
2022-09-07T00:10:08.225Z,99795.00
2022-09-07T00:10:18.972Z,99792.00
2022-09-07T00:10:29.755Z,99795.00
2022-09-07T00:10:40.543Z,99792.00
2022-09-07T00:10:53.254Z,99797.00
2022-09-07T00:11:04.058Z,99795.00
2022-09-07T00:11:14.830Z,99798.00
2022-09-07T00:11:26.577Z,99796.00
2022-09-07T00:11:37.326Z,99797.00
2022-09-07T00:11:48.074Z,99794.00
2022-09-07T00:11:58.833Z,99796.00
2022-09-07T00:12:09.614Z,99801.00
2022-09-07T00:12:20.368Z,99798.00
2022-09-07T00:12:32.127Z,99795.00
2022-09-07T00:12:42.916Z,99796.00
2022-09-07T00:12:54.663Z,99799.00
2022-09-07T00:13:05.404Z,99799.00
2022-09-07T00:13:17.105Z,99800.00
2022-09-07T00:13:27.895Z,99797.00
2022-09-07T00:13:38.658Z,99799.00
2022-09-07T00:13:49.417Z,99798.00
2022-09-07T00:14:00.204Z,99795.00
2022-09-07T00:14:10.935Z,99797.00
2022-09-07T00:14:21.726Z,99799.00
2022-09-07T00:14:33.446Z,99798.00
2022-09-07T00:14:44.184Z,99801.00
2022-09-07T00:14:56.395Z,99799.00
2022-09-07T00:15:07.235Z,99798.00
2022-09-07T00:15:18.007Z,99801.00
2022-09-07T00:15:28.759Z,99802.00
2022-09-07T00:15:39.496Z,99798.00
2022-09-07T00:15:51.282Z,99800.00
2022-09-07T00:16:02.047Z,99798.00
2022-09-07T00:16:12.848Z,99798.00
2022-09-07T00:16:24.605Z,99797.00
2022-09-07T00:16:35.398Z,99798.00
2022-09-07T00:16:46.127Z,99799.00
2022-09-07T00:16:56.868Z,99800.00
2022-09-07T00:17:07.608Z,99800.00
2022-09-07T00:17:18.391Z,99797.00
2022-09-07T00:17:29.149Z,99797.00
2022-09-07T00:17:39.956Z,99798.00
2022-09-07T00:17:50.705Z,99802.00
2022-09-07T00:18:01.465Z,99798.00
2022-09-07T00:18:12.227Z,99800.00
2022-09-07T00:18:22.977Z,99801.00
2022-09-07T00:18:33.718Z,99801.00
2022-09-07T00:18:46.233Z,99799.00
2022-09-07T00:18:57.337Z,99798.00
2022-09-07T00:19:08.080Z,99798.00
2022-09-07T00:19:18.877Z,99799.00
2022-09-07T00:19:29.638Z,99801.00
2022-09-07T00:19:41.398Z,99800.00
2022-09-07T00:19:52.138Z,99804.00
2022-09-07T00:20:02.895Z,99798.00
2022-09-07T00:20:13.678Z,99801.00
2022-09-07T00:20:24.449Z,99801.00
2022-09-07T00:20:35.208Z,99800.00
2022-09-07T00:20:45.940Z,99801.00
2022-09-07T00:20:56.691Z,99802.00
2022-09-07T00:21:08.411Z,99801.00
2022-09-07T00:21:19.158Z,99801.00
2022-09-07T00:21:29.919Z,99801.00
2022-09-07T00:21:40.669Z,99801.00
2022-09-07T00:21:51.409Z,99804.00
2022-09-07T00:22:02.150Z,99801.00
2022-09-07T00:22:12.888Z,99799.00
2022-09-07T00:22:23.629Z,99801.00
2022-09-07T00:22:34.379Z,99801.00
2022-09-07T00:22:45.109Z,99799.00
2022-09-07T00:22:55.862Z,99799.00
2022-09-07T00:23:06.687Z,99800.00
2022-09-07T00:23:17.409Z,99797.00
2022-09-07T00:23:28.161Z,99801.00
2022-09-07T00:23:38.921Z,99802.00
2022-09-07T00:23:49.659Z,99802.00
2022-09-07T00:24:00.401Z,99806.00
2022-09-07T00:24:11.130Z,99805.00
2022-09-07T00:24:21.890Z,99800.00
2022-09-07T00:24:32.692Z,99808.00
2022-09-07T00:24:43.419Z,99804.00
2022-09-07T00:24:54.180Z,99802.00
2022-09-07T00:25:04.948Z,99804.00
2022-09-07T00:25:17.171Z,99804.00
2022-09-07T00:25:30.792Z,99805.00
2022-09-07T00:25:42.691Z,99803.00
2022-09-07T00:25:54.215Z,99804.00
2022-09-07T00:26:05.040Z,99802.00
2022-09-07T00:26:15.780Z,99806.00
2022-09-07T00:26:26.560Z,99804.00
2022-09-07T00:26:37.300Z,99804.00
2022-09-07T00:26:48.039Z,99805.00
2022-09-07T00:26:58.792Z,99802.00
2022-09-07T00:27:09.555Z,99805.00
2022-09-07T00:27:21.251Z,99806.00
2022-09-07T00:27:32.011Z,99805.00
2022-09-07T00:27:43.501Z,99805.00
2022-09-07T00:27:55.243Z,99810.00
2022-09-07T00:28:07.962Z,99809.00
2022-09-07T00:28:21.191Z,99804.00
2022-09-07T00:28:34.183Z,99807.00
2022-09-07T00:28:44.941Z,99807.00
2022-09-07T00:28:57.384Z,99812.00
2022-09-07T00:29:09.084Z,99807.00
2022-09-07T00:29:21.512Z,99808.00
2022-09-07T00:29:32.242Z,99810.00
2022-09-07T00:29:44.512Z,99805.00
2022-09-07T00:29:57.002Z,99808.00
2022-09-07T00:30:08.980Z,99806.00
2022-09-07T00:30:19.732Z,99807.00
2022-09-07T00:30:30.502Z,99809.00
2022-09-07T00:30:41.280Z,99809.00
2022-09-07T00:30:52.022Z,99810.00
2022-09-07T00:31:04.046Z,99805.00
2022-09-07T00:31:16.493Z,99808.00
2022-09-07T00:31:27.294Z,99810.00
2022-09-07T00:31:40.543Z,99809.00
2022-09-07T00:31:51.351Z,99809.00
2022-09-07T00:32:02.133Z,99808.00
2022-09-07T00:32:12.920Z,99812.00
2022-09-07T00:32:24.598Z,99806.00
2022-09-07T00:32:35.348Z,99813.00
2022-09-07T00:32:46.078Z,99809.00
2022-09-07T00:32:56.865Z,99810.00
2022-09-07T00:33:10.563Z,99809.00
2022-09-07T00:33:21.310Z,99810.00
2022-09-07T00:33:33.003Z,99813.00
2022-09-07T00:33:43.754Z,99813.00
2022-09-07T00:33:54.495Z,99813.00
2022-09-07T00:34:06.196Z,99811.00
2022-09-07T00:34:16.934Z,99812.00
2022-09-07T00:34:28.661Z,99810.00
2022-09-07T00:34:39.425Z,99807.00
2022-09-07T00:34:50.166Z,99814.00
2022-09-07T00:35:00.923Z,99807.00
2022-09-07T00:35:12.665Z,99808.00
2022-09-07T00:35:23.437Z,99808.00
2022-09-07T00:35:35.098Z,99805.00
2022-09-07T00:35:45.864Z,99810.00
2022-09-07T00:35:56.627Z,99809.00
2022-09-07T00:36:07.388Z,99809.00
2022-09-07T00:36:18.114Z,99809.00
2022-09-07T00:36:28.873Z,99810.00
2022-09-07T00:36:39.614Z,99808.00
2022-09-07T00:36:52.316Z,99808.00
2022-09-07T00:37:03.085Z,99808.00
2022-09-07T00:37:13.834Z,99811.00
2022-09-07T00:37:24.574Z,99811.00
2022-09-07T00:37:35.316Z,99809.00
2022-09-07T00:37:46.052Z,99810.00
2022-09-07T00:37:56.794Z,99809.00
2022-09-07T00:38:07.575Z,99805.00
2022-09-07T00:38:19.825Z,99808.00
2022-09-07T00:38:30.670Z,99807.00
2022-09-07T00:38:43.145Z,99802.00
2022-09-07T00:38:53.941Z,99803.00
2022-09-07T00:39:04.696Z,99806.00
2022-09-07T00:39:15.435Z,99805.00
2022-09-07T00:39:26.214Z,99802.00
2022-09-07T00:39:38.711Z,99805.00
2022-09-07T00:39:49.655Z,99807.00
2022-09-07T00:40:00.531Z,99807.00
2022-09-07T00:40:11.330Z,99806.00
2022-09-07T00:40:23.747Z,99805.00
2022-09-07T00:40:34.486Z,99804.00
2022-09-07T00:40:45.287Z,99804.00
2022-09-07T00:40:57.743Z,99807.00
2022-09-07T00:41:08.515Z,99808.00
2022-09-07T00:41:19.296Z,99808.00
2022-09-07T00:41:30.990Z,99804.00
2022-09-07T00:41:41.787Z,99804.00
2022-09-07T00:41:53.498Z,99808.00
2022-09-07T00:42:04.243Z,99805.00
2022-09-07T00:42:15.017Z,99804.00
2022-09-07T00:42:25.774Z,99806.00
2022-09-07T00:42:36.522Z,99807.00
2022-09-07T00:42:48.231Z,99802.00
2022-09-07T00:42:58.987Z,99808.00
2022-09-07T00:43:10.724Z,99804.00
2022-09-07T00:43:21.499Z,99807.00
2022-09-07T00:43:32.266Z,99812.00
2022-09-07T00:43:43.127Z,99807.00
2022-09-07T00:43:53.861Z,99806.00
2022-09-07T00:44:04.614Z,99807.00
2022-09-07T00:44:16.331Z,99805.00
2022-09-07T00:44:28.037Z,99805.00
2022-09-07T00:44:40.488Z,99805.00
2022-09-07T00:44:51.247Z,99804.00
2022-09-07T00:45:01.988Z,99808.00
2022-09-07T00:45:12.792Z,99807.00
2022-09-07T00:45:23.551Z,99805.00
2022-09-07T00:45:34.303Z,99806.00
2022-09-07T00:45:45.098Z,99804.00
2022-09-07T00:45:55.902Z,99803.00
2022-09-07T00:46:06.694Z,99806.00
2022-09-07T00:46:17.509Z,99807.00
2022-09-07T00:46:28.292Z,99809.00
2022-09-07T00:46:39.093Z,99809.00
2022-09-07T00:46:49.899Z,99806.00
2022-09-07T00:47:00.689Z,99801.00
2022-09-07T00:47:11.501Z,99806.00
2022-09-07T00:47:22.250Z,99806.00
2022-09-07T00:47:32.987Z,99807.00
2022-09-07T00:47:43.752Z,99806.00
2022-09-07T00:47:55.441Z,99806.00
2022-09-07T00:48:06.198Z,99808.00
2022-09-07T00:48:17.016Z,99803.00
2022-09-07T00:48:27.834Z,99805.00
2022-09-07T00:48:41.450Z,99807.00
2022-09-07T00:48:52.209Z,99808.00
2022-09-07T00:49:03.950Z,99806.00
2022-09-07T00:49:16.459Z,99809.00
2022-09-07T00:49:27.254Z,99806.00
2022-09-07T00:49:38.006Z,99803.00
2022-09-07T00:49:48.766Z,99804.00
2022-09-07T00:50:00.959Z,99803.00
2022-09-07T00:50:12.699Z,99802.00
2022-09-07T00:50:24.400Z,99804.00
2022-09-07T00:50:35.139Z,99809.00
2022-09-07T00:50:45.930Z,99811.00
2022-09-07T00:50:58.449Z,99805.00
2022-09-07T00:51:10.144Z,99808.00
2022-09-07T00:51:20.909Z,99804.00
2022-09-07T00:51:31.660Z,99805.00
2022-09-07T00:51:42.400Z,99804.00
2022-09-07T00:51:53.150Z,99801.00
2022-09-07T00:52:05.372Z,99801.00
2022-09-07T00:52:16.114Z,99799.00
2022-09-07T00:52:26.897Z,99801.00
2022-09-07T00:52:38.611Z,99803.00
2022-09-07T00:52:49.393Z,99805.00
2022-09-07T00:53:00.179Z,99802.00
2022-09-07T00:53:10.961Z,99803.00
2022-09-07T00:53:22.632Z,99807.00
2022-09-07T00:53:35.081Z,99805.00
2022-09-07T00:53:45.821Z,99803.00
2022-09-07T00:53:57.523Z,99805.00
2022-09-07T00:54:09.963Z,99808.00
2022-09-07T00:54:20.703Z,99802.00
2022-09-07T00:54:31.471Z,99801.00
2022-09-07T00:54:42.214Z,99805.00
2022-09-07T00:54:53.022Z,99804.00
2022-09-07T00:55:04.752Z,99802.00
2022-09-07T00:55:15.495Z,99801.00
2022-09-07T00:55:26.253Z,99806.00
2022-09-07T00:55:37.001Z,99800.00
2022-09-07T00:55:49.703Z,99803.00
2022-09-07T00:56:00.454Z,99799.00
2022-09-07T00:56:11.189Z,99800.00
2022-09-07T00:56:21.923Z,99802.00
2022-09-07T00:56:32.662Z,99795.00
2022-09-07T00:56:43.402Z,99799.00
2022-09-07T00:56:54.192Z,99800.00
2022-09-07T00:57:04.964Z,99800.00
2022-09-07T00:57:15.745Z,99802.00
2022-09-07T00:57:26.502Z,99802.00
2022-09-07T00:57:37.384Z,99805.00
2022-09-07T00:57:48.222Z,99801.00
2022-09-07T00:57:58.963Z,99800.00
2022-09-07T00:58:11.402Z,99798.00
2022-09-07T00:58:22.133Z,99801.00
2022-09-07T00:58:32.872Z,99802.00
2022-09-07T00:58:43.602Z,99802.00
2022-09-07T00:58:56.033Z,99801.00
2022-09-07T00:59:07.763Z,99802.00
2022-09-07T00:59:20.714Z,99797.00
2022-09-07T00:59:31.474Z,99799.00
2022-09-07T00:59:43.273Z,99798.00
2022-09-07T00:59:54.023Z,99798.00
2022-09-07T01:00:04.804Z,99800.00
2022-09-07T01:00:15.563Z,99800.00
2022-09-07T01:00:26.302Z,99798.00
2022-09-07T01:00:37.044Z,99801.00
2022-09-07T01:00:47.813Z,99800.00
2022-09-07T01:00:58.552Z,99799.00
2022-09-07T01:01:09.295Z,99801.00
2022-09-07T01:01:20.183Z,99801.00
2022-09-07T01:01:32.785Z,99800.00
2022-09-07T01:01:43.653Z,99802.00
2022-09-07T01:01:54.664Z,99799.00
2022-09-07T01:02:05.592Z,99799.00
2022-09-07T01:02:16.513Z,99803.00
2022-09-07T01:02:27.355Z,99800.00
2022-09-07T01:02:38.263Z,99793.00
2022-09-07T01:02:50.166Z,99799.00
2022-09-07T01:03:01.087Z,99794.00
2022-09-07T01:03:12.865Z,99799.00
2022-09-07T01:03:23.594Z,99799.00
2022-09-07T01:03:35.796Z,99796.00
2022-09-07T01:03:46.545Z,99802.00
2022-09-07T01:03:58.263Z,99796.00
2022-09-07T01:04:08.997Z,99796.00
2022-09-07T01:04:19.746Z,99795.00
2022-09-07T01:04:30.485Z,99802.00
2022-09-07T01:04:41.245Z,99796.00
2022-09-07T01:04:51.985Z,99798.00
2022-09-07T01:05:05.421Z,99795.00
2022-09-07T01:05:18.387Z,99795.00
2022-09-07T01:05:30.086Z,99793.00
2022-09-07T01:05:42.538Z,99792.00
2022-09-07T01:05:53.286Z,99793.00
2022-09-07T01:06:04.056Z,99794.00
2022-09-07T01:06:14.826Z,99790.00
2022-09-07T01:06:25.574Z,99794.00
2022-09-07T01:06:37.275Z,99799.00
2022-09-07T01:06:48.014Z,99798.00
2022-09-07T01:06:59.707Z,99802.00
2022-09-07T01:07:10.457Z,99803.00
2022-09-07T01:07:21.195Z,99801.00
2022-09-07T01:07:31.929Z,99799.00
2022-09-07T01:07:43.628Z,99797.00
2022-09-07T01:07:56.067Z,99798.00
2022-09-07T01:08:07.885Z,99796.00
2022-09-07T01:08:18.658Z,99799.00
2022-09-07T01:08:29.493Z,99797.00
2022-09-07T01:08:40.377Z,99798.00
2022-09-07T01:08:52.806Z,99801.00
2022-09-07T01:09:03.548Z,99801.00
2022-09-07T01:09:15.272Z,99800.00
2022-09-07T01:09:27.477Z,99801.00
2022-09-07T01:09:38.228Z,99796.00
2022-09-07T01:09:49.957Z,99798.00
2022-09-07T01:10:02.425Z,99798.00
2022-09-07T01:10:13.180Z,99797.00
2022-09-07T01:10:24.908Z,99801.00
2022-09-07T01:10:36.630Z,99802.00
2022-09-07T01:10:47.419Z,99802.00
2022-09-07T01:10:59.158Z,99799.00
2022-09-07T01:11:10.878Z,99806.00
2022-09-07T01:11:21.630Z,99802.00
2022-09-07T01:11:33.589Z,99801.00
2022-09-07T01:11:44.376Z,99802.00
2022-09-07T01:11:55.116Z,99803.00
2022-09-07T01:12:05.878Z,99804.00
2022-09-07T01:12:17.578Z,99803.00
2022-09-07T01:12:28.318Z,99803.00
2022-09-07T01:12:41.018Z,99804.00
2022-09-07T01:12:53.449Z,99800.00
2022-09-07T01:13:04.226Z,99802.00
2022-09-07T01:13:15.959Z,99801.00
2022-09-07T01:13:26.719Z,99802.00
2022-09-07T01:13:37.457Z,99802.00
2022-09-07T01:13:48.249Z,99800.00
2022-09-07T01:13:58.981Z,99798.00
2022-09-07T01:14:09.760Z,99798.00
2022-09-07T01:14:20.530Z,99794.00
2022-09-07T01:14:31.269Z,99799.00
2022-09-07T01:14:42.063Z,99797.00
2022-09-07T01:14:52.790Z,99799.00
2022-09-07T01:15:03.569Z,99795.00
2022-09-07T01:15:14.289Z,99794.00
2022-09-07T01:15:25.991Z,99796.00
2022-09-07T01:15:38.464Z,99793.00
2022-09-07T01:15:49.221Z,99790.00
2022-09-07T01:16:01.014Z,99791.00
2022-09-07T01:16:11.773Z,99797.00
2022-09-07T01:16:23.528Z,99796.00
2022-09-07T01:16:34.300Z,99791.00
2022-09-07T01:16:45.991Z,99790.00
2022-09-07T01:16:56.728Z,99785.00
2022-09-07T01:17:08.432Z,99791.00
2022-09-07T01:17:20.131Z,99791.00
2022-09-07T01:17:30.891Z,99793.00
2022-09-07T01:17:44.491Z,99790.00
2022-09-07T01:17:56.202Z,99788.00
2022-09-07T01:18:06.944Z,99789.00
2022-09-07T01:18:19.142Z,99790.00
2022-09-07T01:18:31.723Z,99793.00
2022-09-07T01:18:44.062Z,99792.00
2022-09-07T01:18:54.811Z,99788.00
2022-09-07T01:19:05.539Z,99793.00
2022-09-07T01:19:16.331Z,99788.00
2022-09-07T01:19:28.783Z,99787.00
2022-09-07T01:19:40.504Z,99786.00
2022-09-07T01:19:52.241Z,99789.00
2022-09-07T01:20:03.971Z,99792.00
2022-09-07T01:20:15.706Z,99791.00
2022-09-07T01:20:26.462Z,99788.00
2022-09-07T01:20:38.152Z,99794.00
2022-09-07T01:20:48.921Z,99787.00
2022-09-07T01:20:59.720Z,99786.00
2022-09-07T01:21:10.483Z,99787.00
2022-09-07T01:21:21.252Z,99788.00
2022-09-07T01:21:33.703Z,99789.00
2022-09-07T01:21:44.452Z,99789.00
2022-09-07T01:21:55.206Z,99788.00
2022-09-07T01:22:05.954Z,99789.00
2022-09-07T01:22:16.713Z,99785.00
2022-09-07T01:22:27.452Z,99786.00
2022-09-07T01:22:38.195Z,99785.00
2022-09-07T01:22:50.665Z,99785.00
2022-09-07T01:23:01.401Z,99785.00
2022-09-07T01:23:13.148Z,99782.00
2022-09-07T01:23:25.344Z,99780.00
2022-09-07T01:23:36.118Z,99782.00
2022-09-07T01:23:46.884Z,99780.00
2022-09-07T01:23:57.653Z,99785.00
2022-09-07T01:24:08.396Z,99780.00
2022-09-07T01:24:19.136Z,99777.00
2022-09-07T01:24:29.888Z,99776.00
2022-09-07T01:24:43.303Z,99778.00
2022-09-07T01:24:54.053Z,99781.00
2022-09-07T01:25:04.809Z,99777.00
2022-09-07T01:25:15.598Z,99781.00
2022-09-07T01:25:27.288Z,99780.00
2022-09-07T01:25:38.026Z,99776.00
2022-09-07T01:25:48.765Z,99778.00
2022-09-07T01:25:59.514Z,99782.00
2022-09-07T01:26:10.264Z,99778.00
2022-09-07T01:26:21.005Z,99777.00
2022-09-07T01:26:31.734Z,99777.00
2022-09-07T01:26:43.240Z,99785.00
2022-09-07T01:26:53.996Z,99780.00
2022-09-07T01:27:04.726Z,99783.00
2022-09-07T01:27:15.474Z,99782.00
2022-09-07T01:27:26.224Z,99783.00
2022-09-07T01:27:38.664Z,99786.00
2022-09-07T01:27:49.403Z,99785.00
2022-09-07T01:28:00.161Z,99785.00
2022-09-07T01:28:10.895Z,99785.00
2022-09-07T01:28:21.650Z,99782.00
2022-09-07T01:28:34.055Z,99781.00
2022-09-07T01:28:46.266Z,99788.00
2022-09-07T01:28:58.005Z,99786.00
2022-09-07T01:29:11.208Z,99787.00
2022-09-07T01:29:22.066Z,99790.00
2022-09-07T01:29:32.837Z,99790.00
2022-09-07T01:29:43.576Z,99793.00
2022-09-07T01:29:54.316Z,99791.00
2022-09-07T01:30:06.554Z,99790.00
2022-09-07T01:30:17.277Z,99791.00
2022-09-07T01:30:30.014Z,99792.00
2022-09-07T01:30:42.466Z,99794.00
2022-09-07T01:30:53.245Z,99793.00
2022-09-07T01:31:04.086Z,99792.00
2022-09-07T01:31:15.815Z,99797.00
2022-09-07T01:31:26.596Z,99791.00
2022-09-07T01:31:37.401Z,99797.00
2022-09-07T01:31:49.859Z,99791.00
2022-09-07T01:32:00.661Z,99799.00
2022-09-07T01:32:13.367Z,99795.00
2022-09-07T01:32:24.155Z,99795.00
2022-09-07T01:32:34.944Z,99801.00
2022-09-07T01:32:45.728Z,99792.00
2022-09-07T01:32:56.458Z,99796.00
2022-09-07T01:33:07.227Z,99796.00
2022-09-07T01:33:18.020Z,99794.00
2022-09-07T01:33:28.769Z,99792.00
2022-09-07T01:33:39.523Z,99796.00
2022-09-07T01:33:51.230Z,99790.00
2022-09-07T01:34:03.137Z,99793.00
2022-09-07T01:34:13.927Z,99793.00
2022-09-07T01:34:26.184Z,99795.00
2022-09-07T01:34:36.958Z,99792.00
2022-09-07T01:34:49.417Z,99796.00
2022-09-07T01:35:00.155Z,99795.00
2022-09-07T01:35:10.908Z,99789.00
2022-09-07T01:35:22.642Z,99793.00
2022-09-07T01:35:33.389Z,99789.00
2022-09-07T01:35:44.147Z,99793.00
2022-09-07T01:35:55.887Z,99791.00
2022-09-07T01:36:07.597Z,99787.00
2022-09-07T01:36:18.329Z,99790.00
2022-09-07T01:36:30.828Z,99787.00
2022-09-07T01:36:41.572Z,99789.00
2022-09-07T01:36:52.339Z,99792.00
2022-09-07T01:37:04.028Z,99789.00
2022-09-07T01:37:14.774Z,99788.00
2022-09-07T01:37:25.547Z,99787.00
2022-09-07T01:37:36.286Z,99787.00
2022-09-07T01:37:47.020Z,99788.00
2022-09-07T01:37:58.719Z,99787.00
2022-09-07T01:38:09.467Z,99789.00
2022-09-07T01:38:22.673Z,99787.00
2022-09-07T01:38:34.381Z,99785.00
2022-09-07T01:38:45.143Z,99788.00
2022-09-07T01:38:55.881Z,99787.00
2022-09-07T01:39:06.622Z,99789.00
2022-09-07T01:39:17.390Z,99789.00
2022-09-07T01:39:28.263Z,99785.00
2022-09-07T01:39:39.075Z,99786.00
2022-09-07T01:39:51.619Z,99786.00
2022-09-07T01:40:02.602Z,99786.00
2022-09-07T01:40:13.517Z,99786.00
2022-09-07T01:40:25.724Z,99788.00
2022-09-07T01:40:36.468Z,99788.00
2022-09-07T01:40:48.930Z,99789.00
2022-09-07T01:40:59.682Z,99789.00
2022-09-07T01:41:10.453Z,99790.00
2022-09-07T01:41:21.230Z,99792.00
2022-09-07T01:41:32.943Z,99792.00
2022-09-07T01:41:44.650Z,99793.00
2022-09-07T01:41:56.350Z,99787.00
2022-09-07T01:42:08.052Z,99791.00
2022-09-07T01:42:18.832Z,99791.00
2022-09-07T01:42:30.551Z,99787.00
2022-09-07T01:42:41.340Z,99790.00
2022-09-07T01:42:53.052Z,99792.00
2022-09-07T01:43:03.802Z,99791.00
2022-09-07T01:43:14.530Z,99790.00
2022-09-07T01:43:26.953Z,99789.00
2022-09-07T01:43:37.681Z,99786.00
2022-09-07T01:43:48.431Z,99785.00
2022-09-07T01:43:59.183Z,99786.00
2022-09-07T01:44:09.951Z,99782.00
2022-09-07T01:44:20.730Z,99783.00
2022-09-07T01:44:32.476Z,99783.00
2022-09-07T01:44:44.934Z,99782.00
2022-09-07T01:44:55.693Z,99780.00
2022-09-07T01:45:06.444Z,99778.00
2022-09-07T01:45:17.181Z,99781.00
2022-09-07T01:45:29.642Z,99779.00
2022-09-07T01:45:40.382Z,99778.00
2022-09-07T01:45:51.162Z,99776.00
2022-09-07T01:46:01.997Z,99781.00
2022-09-07T01:46:12.759Z,99776.00
2022-09-07T01:46:23.598Z,99777.00
2022-09-07T01:46:35.415Z,99778.00
2022-09-07T01:46:46.247Z,99777.00
2022-09-07T01:46:57.992Z,99776.00
2022-09-07T01:47:08.742Z,99780.00
2022-09-07T01:47:19.493Z,99781.00
2022-09-07T01:47:30.242Z,99782.00
2022-09-07T01:47:40.985Z,99780.00
2022-09-07T01:47:52.673Z,99777.00
2022-09-07T01:48:03.422Z,99785.00
2022-09-07T01:48:15.218Z,99783.00
2022-09-07T01:48:26.081Z,99786.00
2022-09-07T01:48:36.843Z,99788.00
2022-09-07T01:48:48.543Z,99789.00
2022-09-07T01:48:59.315Z,99789.00
2022-09-07T01:49:11.045Z,99793.00
2022-09-07T01:49:21.814Z,99785.00
2022-09-07T01:49:32.564Z,99781.00
2022-09-07T01:49:43.313Z,99786.00
2022-09-07T01:49:54.064Z,99785.00
2022-09-07T01:50:04.822Z,99784.00
2022-09-07T01:50:15.583Z,99783.00
2022-09-07T01:50:26.444Z,99785.00
2022-09-07T01:50:37.204Z,99783.00
2022-09-07T01:50:48.944Z,99778.00
2022-09-07T01:50:59.687Z,99780.00
2022-09-07T01:51:10.476Z,99781.00
2022-09-07T01:51:22.956Z,99784.00
2022-09-07T01:51:33.746Z,99779.00
2022-09-07T01:51:44.481Z,99780.00
2022-09-07T01:51:56.906Z,99780.00
2022-09-07T01:52:08.614Z,99777.00
2022-09-07T01:52:19.353Z,99779.00
2022-09-07T01:52:30.104Z,99776.00
2022-09-07T01:52:40.857Z,99780.00
2022-09-07T01:52:51.652Z,99777.00
2022-09-07T01:53:02.413Z,99778.00
2022-09-07T01:53:13.180Z,99779.00
2022-09-07T01:53:23.914Z,99779.00
2022-09-07T01:53:34.694Z,99781.00
2022-09-07T01:53:45.423Z,99777.00
2022-09-07T01:53:56.163Z,99778.00
2022-09-07T01:54:06.931Z,99774.00
2022-09-07T01:54:17.675Z,99777.00
2022-09-07T01:54:29.405Z,99780.00
2022-09-07T01:54:41.145Z,99780.00
2022-09-07T01:54:52.895Z,99781.00
2022-09-07T01:55:03.647Z,99781.00
2022-09-07T01:55:15.347Z,99779.00
2022-09-07T01:55:27.064Z,99781.00
2022-09-07T01:55:38.747Z,99777.00
2022-09-07T01:55:49.510Z,99781.00
2022-09-07T01:56:01.237Z,99779.00
2022-09-07T01:56:11.978Z,99781.00
2022-09-07T01:56:22.782Z,99784.00
2022-09-07T01:56:34.982Z,99778.00
2022-09-07T01:56:45.747Z,99784.00
2022-09-07T01:56:56.496Z,99781.00
2022-09-07T01:57:08.967Z,99779.00
2022-09-07T01:57:19.706Z,99782.00
2022-09-07T01:57:31.418Z,99780.00
2022-09-07T01:57:43.128Z,99780.00
2022-09-07T01:57:53.866Z,99780.00
2022-09-07T01:58:05.587Z,99783.00
2022-09-07T01:58:16.382Z,99777.00
2022-09-07T01:58:27.225Z,99784.00
2022-09-07T01:58:37.968Z,99782.00
2022-09-07T01:58:48.705Z,99780.00
2022-09-07T01:58:59.474Z,99780.00
2022-09-07T01:59:10.197Z,99778.00
2022-09-07T01:59:20.936Z,99781.00
2022-09-07T01:59:32.672Z,99781.00
2022-09-07T01:59:43.456Z,99780.00
2022-09-07T01:59:54.206Z,99783.00
2022-09-07T02:00:05.069Z,99778.00
2022-09-07T02:00:15.807Z,99779.00
2022-09-07T02:00:27.520Z,99779.00
2022-09-07T02:00:38.239Z,99779.00
2022-09-07T02:00:49.947Z,99777.00
2022-09-07T02:01:02.409Z,99777.00
2022-09-07T02:01:13.254Z,99780.00
2022-09-07T02:01:24.088Z,99777.00
2022-09-07T02:01:34.932Z,99775.00
2022-09-07T02:01:47.696Z,99780.00
2022-09-07T02:01:58.495Z,99781.00
2022-09-07T02:02:09.283Z,99779.00
2022-09-07T02:02:20.044Z,99778.00
2022-09-07T02:02:30.914Z,99782.00
2022-09-07T02:02:42.787Z,99782.00
2022-09-07T02:02:53.605Z,99780.00
2022-09-07T02:03:04.471Z,99785.00
2022-09-07T02:03:17.159Z,99787.00
2022-09-07T02:03:27.927Z,99787.00
2022-09-07T02:03:38.670Z,99789.00
2022-09-07T02:03:49.413Z,99786.00
2022-09-07T02:04:01.104Z,99787.00
2022-09-07T02:04:11.918Z,99792.00
2022-09-07T02:04:22.628Z,99789.00
2022-09-07T02:04:34.853Z,99798.00
2022-09-07T02:04:45.592Z,99796.00
2022-09-07T02:04:57.320Z,99800.00
2022-09-07T02:05:08.049Z,99803.00
2022-09-07T02:05:18.820Z,99805.00
2022-09-07T02:05:29.610Z,99812.00
2022-09-07T02:05:40.354Z,99817.00
2022-09-07T02:05:51.129Z,99826.00
2022-09-07T02:06:02.810Z,99835.00
2022-09-07T02:06:13.568Z,99848.00
2022-09-07T02:06:24.310Z,99858.00
2022-09-07T02:06:36.038Z,99863.00
2022-09-07T02:06:46.760Z,99875.00
2022-09-07T02:06:58.480Z,99877.00
2022-09-07T02:07:09.271Z,99886.00
2022-09-07T02:07:20.020Z,99883.00
2022-09-07T02:07:31.710Z,99886.00
2022-09-07T02:07:42.488Z,99883.00
2022-09-07T02:07:53.226Z,99887.00
2022-09-07T02:08:03.960Z,99887.00
2022-09-07T02:08:14.722Z,99887.00
2022-09-07T02:08:25.470Z,99891.00
2022-09-07T02:08:37.181Z,99889.00
2022-09-07T02:08:48.161Z,99887.00
2022-09-07T02:08:59.860Z,99887.00
2022-09-07T02:09:10.591Z,99890.00
2022-09-07T02:09:22.343Z,99882.00
2022-09-07T02:09:33.155Z,99884.00
2022-09-07T02:09:43.881Z,99883.00
2022-09-07T02:09:54.619Z,99899.00
2022-09-07T02:10:05.381Z,99889.00
2022-09-07T02:10:17.071Z,99893.00
2022-09-07T02:10:27.863Z,99885.00
2022-09-07T02:10:40.334Z,99892.00
2022-09-07T02:10:51.072Z,99875.00
2022-09-07T02:11:02.827Z,99870.00
2022-09-07T02:11:14.522Z,99865.00
2022-09-07T02:11:26.252Z,99862.00